createdAt,value
2022-08-26T00:01:17.952Z,99430.53
2022-08-26T00:03:51.704Z,99422.22
2022-08-26T00:06:20.785Z,99426.59
2022-08-26T00:08:47.891Z,99429.53
2022-08-26T00:11:14.895Z,99418.72
2022-08-26T00:13:53.162Z,99420.91
2022-08-26T00:16:20.257Z,99423.84
2022-08-26T00:18:47.160Z,99427.59
2022-08-26T00:21:14.032Z,99425.19
2022-08-26T00:23:40.876Z,99422.13
2022-08-26T00:26:08.317Z,99426.94
2022-08-26T00:28:35.390Z,99421.31
2022-08-26T00:31:02.351Z,99431.63
2022-08-26T00:33:30.167Z,99425.84
2022-08-26T00:35:57.105Z,99426.69
2022-08-26T00:38:24.021Z,99416.72
2022-08-26T00:40:52.622Z,99418.56
2022-08-26T00:43:19.773Z,99419.13
2022-08-26T00:45:50.930Z,99419.91
2022-08-26T00:48:19.633Z,99421.13
2022-08-26T00:50:50.029Z,99422.38
2022-08-26T00:53:17.329Z,99416.59
2022-08-26T00:55:44.167Z,99417.94
2022-08-26T00:58:11.012Z,99415.91
2022-08-26T01:00:37.957Z,99415.44
2022-08-26T01:03:05.234Z,99420.47
2022-08-26T01:05:32.353Z,99420.63
2022-08-26T01:07:59.252Z,99411.56
2022-08-26T01:10:28.056Z,99423.25
2022-08-26T01:13:12.990Z,99418.28
2022-08-26T01:15:44.983Z,99415.25
2022-08-26T01:18:12.713Z,99418.59
2022-08-26T01:20:58.510Z,99417.28
2022-08-26T01:23:38.214Z,99413.59
2022-08-26T01:26:07.871Z,99411.31
2022-08-26T01:28:50.669Z,99422.38
2022-08-26T01:31:20.756Z,99411.31
2022-08-26T01:33:51.083Z,99409.81
2022-08-26T01:36:18.424Z,99411.97
2022-08-26T01:38:47.662Z,99408.88
2022-08-26T01:41:19.610Z,99411.41
2022-08-26T01:43:50.222Z,99407.28
2022-08-26T01:46:17.293Z,99407.78
2022-08-26T01:48:45.615Z,99408.88
2022-08-26T01:51:15.094Z,99410.69
2022-08-26T01:53:42.296Z,99403.66
2022-08-26T01:56:14.654Z,99403.81
2022-08-26T01:58:46.541Z,99411.16
2022-08-26T02:01:13.499Z,99408.75
2022-08-26T02:03:48.643Z,99400.84
2022-08-26T02:06:15.521Z,99400.16
2022-08-26T02:08:45.491Z,99402.56
2022-08-26T02:11:12.525Z,99407.50
2022-08-26T02:14:00.761Z,99406.31
2022-08-26T02:16:29.229Z,99406.59
2022-08-26T02:18:56.581Z,99414.25
2022-08-26T02:21:24.952Z,99412.25
2022-08-26T02:23:52.070Z,99409.88
2022-08-26T02:26:21.110Z,99416.13
2022-08-26T02:29:02.725Z,99408.81
2022-08-26T02:31:29.689Z,99412.53
2022-08-26T02:34:06.436Z,99408.56
2022-08-26T02:36:33.655Z,99409.03
2022-08-26T02:39:01.461Z,99414.34
2022-08-26T02:41:28.297Z,99409.03
2022-08-26T02:43:55.145Z,99407.38
2022-08-26T02:46:28.040Z,99405.22
2022-08-26T02:48:57.516Z,99408.69
2022-08-26T02:51:25.129Z,99410.88
2022-08-26T02:53:51.974Z,99405.09
2022-08-26T02:56:19.264Z,99397.31
2022-08-26T02:58:46.243Z,99401.75
2022-08-26T03:01:23.882Z,99404.97
2022-08-26T03:03:50.844Z,99404.97
2022-08-26T03:06:18.336Z,99403.31
2022-08-26T03:08:46.595Z,99399.69
2022-08-26T03:11:14.064Z,99400.44
2022-08-26T03:13:42.165Z,99402.81
2022-08-26T03:16:09.067Z,99395.50
2022-08-26T03:18:36.283Z,99396.56
2022-08-26T03:21:07.653Z,99399.34
2022-08-26T03:23:34.625Z,99400.66
2022-08-26T03:26:01.817Z,99397.28
2022-08-26T03:28:28.832Z,99390.34
2022-08-26T03:30:55.969Z,99398.25
2022-08-26T03:33:23.354Z,99402.22
2022-08-26T03:35:50.920Z,99396.53
2022-08-26T03:38:18.753Z,99392.97
2022-08-26T03:40:45.927Z,99401.25
2022-08-26T03:43:13.503Z,99398.38
2022-08-26T03:45:40.382Z,99405.56
2022-08-26T03:48:07.680Z,99397.28
2022-08-26T03:50:35.700Z,99397.53
2022-08-26T03:53:03.910Z,99401.38
2022-08-26T03:55:32.114Z,99392.00
2022-08-26T03:57:59.181Z,99397.75
2022-08-26T04:00:26.146Z,99400.28
2022-08-26T04:02:53.021Z,99394.66
2022-08-26T04:05:21.534Z,99388.63
2022-08-26T04:07:49.917Z,99397.75
2022-08-26T04:10:20.232Z,99393.19
2022-08-26T04:12:47.525Z,99393.91
2022-08-26T04:15:15.274Z,99398.00
2022-08-26T04:17:43.240Z,99391.63
2022-08-26T04:20:10.706Z,99389.09
2022-08-26T04:22:37.621Z,99387.41
2022-08-26T04:25:04.676Z,99388.28
2022-08-26T04:27:33.727Z,99391.84
2022-08-26T04:30:00.704Z,99392.25
2022-08-26T04:32:27.547Z,99388.38
2022-08-26T04:34:54.421Z,99388.38
2022-08-26T04:37:22.097Z,99396.19
2022-08-26T04:39:53.297Z,99388.28
2022-08-26T04:42:25.941Z,99391.16
2022-08-26T04:44:53.074Z,99393.66
2022-08-26T04:47:19.999Z,99398.97
2022-08-26T04:49:46.867Z,99390.19
2022-08-26T04:52:13.692Z,99396.94
2022-08-26T04:54:42.004Z,99399.56
2022-08-26T04:57:08.959Z,99397.78
2022-08-26T04:59:39.184Z,99399.34
2022-08-26T05:02:06.873Z,99401.97
2022-08-26T05:04:34.031Z,99414.56
2022-08-26T05:07:02.747Z,99414.19
2022-08-26T05:09:30.416Z,99413.09
2022-08-26T05:11:57.640Z,99413.56
2022-08-26T05:14:24.490Z,99411.34
2022-08-26T05:16:51.641Z,99412.63
2022-08-26T05:19:18.853Z,99414.19
2022-08-26T05:21:46.347Z,99416.28
2022-08-26T05:24:14.112Z,99408.97
2022-08-26T05:26:41.153Z,99406.66
2022-08-26T05:29:08.001Z,99410.06
2022-08-26T05:31:35.586Z,99410.56
2022-08-26T05:34:03.928Z,99415.78
2022-08-26T05:36:32.023Z,99421.91
2022-08-26T05:39:00.467Z,99420.56
2022-08-26T05:41:34.447Z,99416.13
2022-08-26T05:44:04.468Z,99423.66
2022-08-26T05:46:31.493Z,99425.97
2022-08-26T05:48:58.639Z,99425.31
2022-08-26T05:51:26.216Z,99426.78
2022-08-26T05:53:54.447Z,99427.34
2022-08-26T05:56:22.315Z,99429.84
2022-08-26T05:58:49.141Z,99426.63
2022-08-26T06:01:17.903Z,99426.03
2022-08-26T06:03:46.348Z,99426.06
2022-08-26T06:06:28.079Z,99427.47
2022-08-26T06:08:56.929Z,99424.94
2022-08-26T06:11:24.168Z,99424.59
2022-08-26T06:13:51.773Z,99424.13
2022-08-26T06:16:19.839Z,99427.22
2022-08-26T06:18:47.419Z,99419.59
2022-08-26T06:21:23.659Z,99425.00
2022-08-26T06:23:51.513Z,99423.44
2022-08-26T06:26:18.323Z,99427.09
2022-08-26T06:28:45.351Z,99424.06
2022-08-26T06:31:13.206Z,99421.53
2022-08-26T06:33:40.106Z,99427.06
2022-08-26T06:36:07.123Z,99432.13
2022-08-26T06:38:34.037Z,99433.97
2022-08-26T06:41:03.365Z,99434.50
2022-08-26T06:43:30.208Z,99437.50
2022-08-26T06:46:00.987Z,99436.06
2022-08-26T06:48:28.089Z,99441.84
2022-08-26T06:51:08.810Z,99440.31
2022-08-26T06:53:36.731Z,99438.34
2022-08-26T06:56:04.687Z,99438.28
2022-08-26T06:58:31.895Z,99443.06
2022-08-26T07:01:03.783Z,99432.50
2022-08-26T07:03:39.801Z,99433.63
2022-08-26T07:06:07.002Z,99437.03
2022-08-26T07:08:34.212Z,99427.88
2022-08-26T07:11:04.465Z,99429.56
2022-08-26T07:13:31.833Z,99432.94
2022-08-26T07:15:58.728Z,99435.28
2022-08-26T07:18:30.125Z,99430.56
2022-08-26T07:20:56.980Z,99431.31
2022-08-26T07:23:23.939Z,99430.88
2022-08-26T07:25:51.338Z,99433.78
2022-08-26T07:28:18.430Z,99435.03
2022-08-26T07:30:46.358Z,99431.44
2022-08-26T07:33:13.212Z,99429.75
2022-08-26T07:35:40.171Z,99426.19
2022-08-26T07:38:07.191Z,99425.06
2022-08-26T07:40:34.252Z,99434.00
2022-08-26T07:43:01.154Z,99435.66
2022-08-26T07:45:28.128Z,99423.50
2022-08-26T07:47:55.999Z,99431.88
2022-08-26T07:50:22.909Z,99427.31
2022-08-26T07:53:10.617Z,99428.59
2022-08-26T07:55:38.269Z,99432.78
2022-08-26T07:58:05.707Z,99428.50
2022-08-26T08:00:33.500Z,99428.53
2022-08-26T08:03:02.105Z,99427.34
2022-08-26T08:05:33.698Z,99432.53
2022-08-26T08:08:26.352Z,99432.53
2022-08-26T08:10:50.891Z,99432.16
2022-08-26T08:13:17.839Z,99422.03
2022-08-26T08:15:46.599Z,99424.31
2022-08-26T08:18:17.277Z,99423.28
2022-08-26T08:20:47.619Z,99420.69
2022-08-26T08:23:30.992Z,99418.56
2022-08-26T08:26:04.766Z,99420.19
2022-08-26T08:28:31.821Z,99422.41
2022-08-26T08:30:59.053Z,99420.44
2022-08-26T08:33:26.471Z,99411.22
2022-08-26T08:35:53.359Z,99407.59
2022-08-26T08:38:20.186Z,99412.19
2022-08-26T08:40:47.107Z,99413.72
2022-08-26T08:43:46.543Z,99410.88
2022-08-26T08:46:16.280Z,99405.00
2022-08-26T08:48:46.382Z,99405.09
2022-08-26T08:51:19.452Z,99401.91
2022-08-26T08:53:48.060Z,99401.81
2022-08-26T08:56:37.354Z,99398.03
2022-08-26T08:59:04.248Z,99395.31
2022-08-26T09:01:35.212Z,99400.66
2022-08-26T09:04:24.285Z,99388.88
2022-08-26T09:06:55.318Z,99392.69
2022-08-26T09:09:28.164Z,99385.84
2022-08-26T09:11:55.480Z,99380.25
2022-08-26T09:14:22.294Z,99388.66
2022-08-26T09:17:01.469Z,99386.84
2022-08-26T09:19:34.732Z,99383.88
2022-08-26T09:22:02.899Z,99380.88
2022-08-26T09:24:36.347Z,99377.38
2022-08-26T09:27:06.444Z,99378.00
2022-08-26T09:29:41.314Z,99371.31
2022-08-26T09:32:18.884Z,99377.47
2022-08-26T09:34:53.908Z,99374.00
2022-08-26T09:37:36.127Z,99365.34
2022-08-26T09:40:21.731Z,99359.78
2022-08-26T09:43:05.160Z,99362.38
2022-08-26T09:45:33.728Z,99356.69
2022-08-26T09:48:01.752Z,99364.63
2022-08-26T09:50:33.494Z,99357.78
2022-08-26T09:53:03.082Z,99354.72
2022-08-26T09:55:37.593Z,99348.84
2022-08-26T09:58:08.814Z,99364.59
2022-08-26T10:00:38.416Z,99359.41
2022-08-26T10:03:12.626Z,99343.16
2022-08-26T10:05:56.216Z,99338.13
2022-08-26T10:08:25.902Z,99327.53
2022-08-26T10:10:54.141Z,99329.31
2022-08-26T10:13:27.987Z,99329.00
2022-08-26T10:16:02.141Z,99326.19
2022-08-26T10:18:34.301Z,99343.16
2022-08-26T10:21:01.612Z,99323.19
2022-08-26T10:23:30.827Z,99306.56
2022-08-26T10:26:05.271Z,99304.88
2022-08-26T10:28:49.358Z,99306.63
2022-08-26T10:31:16.192Z,99304.47
2022-08-26T10:33:43.072Z,99300.13
2022-08-26T10:36:15.352Z,99293.41
2022-08-26T10:38:47.209Z,99300.47
2022-08-26T10:41:16.893Z,99302.38
2022-08-26T10:43:51.241Z,99307.03
2022-08-26T10:46:22.439Z,99305.63
2022-08-26T10:48:59.991Z,99289.22
2022-08-26T10:51:33.125Z,99282.88
2022-08-26T10:54:04.535Z,99284.91
2022-08-26T10:56:47.835Z,99295.19
2022-08-26T10:59:29.387Z,99301.66
2022-08-26T11:02:05.826Z,99296.50
2022-08-26T11:04:34.990Z,99294.00
2022-08-26T11:07:21.028Z,99296.50
2022-08-26T11:09:48.357Z,99292.19
2022-08-26T11:12:34.948Z,99294.81
2022-08-26T11:15:13.315Z,99302.13
2022-08-26T11:17:46.386Z,99307.78
2022-08-26T11:20:22.172Z,99321.06
2022-08-26T11:22:51.533Z,99317.72
2022-08-26T11:25:19.325Z,99317.22
2022-08-26T11:27:48.897Z,99307.00
2022-08-26T11:30:15.875Z,99292.31
2022-08-26T11:32:45.421Z,99305.59
2022-08-26T11:35:18.264Z,99309.09
2022-08-26T11:37:47.905Z,99308.19
2022-08-26T11:40:25.088Z,99312.88
2022-08-26T11:42:58.096Z,99317.09
2022-08-26T11:45:43.795Z,99319.22
2022-08-26T11:48:26.024Z,99330.06
2022-08-26T11:50:54.312Z,99341.44
2022-08-26T11:53:22.383Z,99342.38
2022-08-26T11:55:51.585Z,99341.22
2022-08-26T11:58:21.180Z,99344.31
2022-08-26T12:01:09.833Z,99332.34
2022-08-26T12:03:46.980Z,99324.81
2022-08-26T12:08:59.103Z,99319.53
2022-08-26T12:11:28.408Z,99309.44
2022-08-26T12:13:56.851Z,99299.13
2022-08-26T12:16:25.636Z,99291.84
2022-08-26T12:18:52.766Z,99294.38
2022-08-26T12:21:21.320Z,99290.44
2022-08-26T12:23:50.161Z,99282.69
2022-08-26T12:26:43.304Z,99279.88
2022-08-26T12:29:26.740Z,99281.94
2022-08-26T12:32:27.704Z,99279.38
2022-08-26T12:34:55.461Z,99278.63
2022-08-26T12:37:22.448Z,99275.03
2022-08-26T12:39:49.455Z,99280.94
2022-08-26T12:42:19.171Z,99281.59
2022-08-26T12:44:53.426Z,99277.84
2022-08-26T12:47:41.897Z,99281.16
2022-08-26T12:50:21.530Z,99277.22
2022-08-26T12:52:55.879Z,99270.03
2022-08-26T12:55:24.475Z,99266.94
2022-08-26T12:58:09.206Z,99268.56
2022-08-26T13:00:37.958Z,99264.25
2022-08-26T13:03:25.928Z,99268.97
2022-08-26T13:05:52.833Z,99264.69
2022-08-26T13:08:27.065Z,99249.88
2022-08-26T13:11:23.199Z,99245.91
2022-08-26T13:13:51.302Z,99246.59
2022-08-26T13:16:21.854Z,99250.53
2022-08-26T13:18:49.962Z,99242.22
2022-08-26T13:21:21.949Z,99236.97
2022-08-26T13:23:48.939Z,99234.09
2022-08-26T13:26:16.518Z,99230.06
2022-08-26T13:28:43.678Z,99234.53
2022-08-26T13:31:11.286Z,99228.00
2022-08-26T13:33:38.773Z,99227.03
2022-08-26T13:36:06.607Z,99217.44
2022-08-26T13:38:34.159Z,99226.53
2022-08-26T13:41:01.795Z,99213.78
2022-08-26T13:43:28.961Z,99214.94
2022-08-26T13:45:55.794Z,99214.09
2022-08-26T13:48:23.676Z,99204.22
2022-08-26T13:50:50.556Z,99205.16
2022-08-26T13:53:17.532Z,99215.63
2022-08-26T13:55:44.363Z,99209.75
2022-08-26T13:58:11.429Z,99212.59
2022-08-26T14:00:38.403Z,99201.84
2022-08-26T14:03:08.158Z,99208.50
2022-08-26T14:05:37.058Z,99207.16
2022-08-26T14:08:07.079Z,99210.50
2022-08-26T14:10:34.295Z,99207.34
2022-08-26T14:13:01.169Z,99196.88
2022-08-26T14:15:28.495Z,99200.38
2022-08-26T14:17:55.965Z,99200.84
2022-08-26T14:20:26.809Z,99202.69
2022-08-26T14:25:40.694Z,99188.84
2022-08-26T14:28:07.514Z,99189.88
2022-08-26T14:30:34.587Z,99183.78
2022-08-26T14:33:01.448Z,99185.44
2022-08-26T14:35:29.608Z,99179.66
2022-08-26T14:38:13.891Z,99179.97
2022-08-26T14:40:40.886Z,99181.81
2022-08-26T14:43:07.716Z,99185.28
2022-08-26T14:45:37.173Z,99190.75
2022-08-26T14:48:04.152Z,99203.31
2022-08-26T14:50:30.979Z,99203.09
2022-08-26T14:52:57.836Z,99204.41
2022-08-26T14:55:25.073Z,99214.41
2022-08-26T14:57:52.153Z,99226.91
2022-08-26T15:00:19.005Z,99229.81
2022-08-26T15:02:46.055Z,99242.50
2022-08-26T15:05:13.132Z,99241.06
2022-08-26T15:07:39.997Z,99257.97
2022-08-26T15:10:07.671Z,99237.56
2022-08-26T15:12:34.547Z,99237.63
2022-08-26T15:15:01.452Z,99235.25
2022-08-26T15:17:28.340Z,99240.31
2022-08-26T15:19:55.173Z,99227.94
2022-08-26T15:22:22.042Z,99224.16
2022-08-26T15:24:51.842Z,99221.91
2022-08-26T15:27:26.918Z,99228.75
2022-08-26T15:29:53.832Z,99225.16
2022-08-26T15:32:20.756Z,99225.72
2022-08-26T15:34:47.628Z,99225.75
2022-08-26T15:37:14.463Z,99222.41
2022-08-26T15:39:41.458Z,99219.03
2022-08-26T15:42:09.300Z,99214.31
2022-08-26T15:44:36.163Z,99210.44
2022-08-26T15:47:03.107Z,99219.50
2022-08-26T15:49:29.972Z,99229.81
2022-08-26T15:51:56.812Z,99233.13
2022-08-26T15:54:24.058Z,99241.22
2022-08-26T15:56:51.279Z,99232.00
2022-08-26T15:59:18.764Z,99236.75
2022-08-26T16:01:45.956Z,99232.00
2022-08-26T16:04:12.843Z,99234.53
2022-08-26T16:06:40.723Z,99232.53
2022-08-26T16:09:08.344Z,99227.50
2022-08-26T16:11:35.520Z,99223.06
2022-08-26T16:14:03.005Z,99200.88
2022-08-26T16:16:30.883Z,99208.94
2022-08-26T16:18:57.741Z,99212.28
2022-08-26T16:21:25.718Z,99210.03
2022-08-26T16:23:52.574Z,99208.41
2022-08-26T16:26:21.076Z,99214.31
2022-08-26T16:28:48.043Z,99213.47
2022-08-26T16:31:15.502Z,99221.25
2022-08-26T16:33:42.438Z,99220.44
2022-08-26T16:36:09.781Z,99229.63
2022-08-26T16:38:37.011Z,99237.97
2022-08-26T16:41:04.237Z,99233.25
2022-08-26T16:43:31.289Z,99232.97
2022-08-26T16:45:58.288Z,99222.97
2022-08-26T16:48:25.306Z,99224.91
2022-08-26T16:50:52.150Z,99231.84
2022-08-26T16:53:19.266Z,99227.38
2022-08-26T16:55:47.068Z,99225.44
2022-08-26T16:58:14.384Z,99214.88
2022-08-26T17:00:41.418Z,99227.13
2022-08-26T17:03:08.750Z,99226.03
2022-08-26T17:05:35.900Z,99232.41
2022-08-26T17:08:03.587Z,99229.63
2022-08-26T17:10:31.044Z,99234.09
2022-08-26T17:12:57.999Z,99242.72
2022-08-26T17:15:24.869Z,99242.69
2022-08-26T17:17:51.921Z,99253.84
2022-08-26T17:20:19.517Z,99264.44
2022-08-26T17:22:48.345Z,99273.06
2022-08-26T17:25:27.122Z,99254.97
2022-08-26T17:27:54.163Z,99264.69
2022-08-26T17:30:21.198Z,99271.13
2022-08-26T17:32:48.104Z,99275.84
2022-08-26T17:35:15.092Z,99266.66
2022-08-26T17:37:42.300Z,99271.66
2022-08-26T17:40:10.720Z,99281.38
2022-08-26T17:42:38.726Z,99271.94
2022-08-26T17:45:06.078Z,99284.19
2022-08-26T17:47:33.044Z,99279.16
2022-08-26T17:50:00.055Z,99277.75
2022-08-26T17:52:27.343Z,99287.19
2022-08-26T17:54:54.762Z,99295.53
2022-08-26T17:57:53.854Z,99296.38
2022-08-26T18:00:22.725Z,99309.16
2022-08-26T18:02:49.535Z,99330.75
2022-08-26T18:05:16.685Z,99363.81
2022-08-26T18:07:44.294Z,99349.72
2022-08-26T18:10:13.409Z,99345.06
2022-08-26T18:12:40.520Z,99351.16
2022-08-26T18:15:08.231Z,99359.69
2022-08-26T18:17:35.103Z,99355.16
2022-08-26T18:20:02.039Z,99369.81
2022-08-26T18:22:28.909Z,99373.56
2022-08-26T18:24:59.003Z,99372.06
2022-08-26T18:27:26.470Z,99371.63
2022-08-26T18:29:53.323Z,99369.44
2022-08-26T18:32:20.239Z,99367.75
2022-08-26T18:34:47.216Z,99361.97
2022-08-26T18:37:14.078Z,99358.09
2022-08-26T18:39:41.047Z,99351.47
2022-08-26T18:42:08.046Z,99358.69
2022-08-26T18:44:35.026Z,99362.28
2022-08-26T18:47:01.966Z,99365.06
2022-08-26T18:49:28.845Z,99386.06
2022-08-26T18:51:55.678Z,99400.16
2022-08-26T18:54:22.659Z,99400.31
2022-08-26T18:56:49.693Z,99390.28
2022-08-26T18:59:16.567Z,99382.28
2022-08-26T19:01:44.585Z,99382.88
2022-08-26T19:04:15.310Z,99388.31
2022-08-26T19:06:43.156Z,99393.03
2022-08-26T19:09:11.787Z,99406.03
2022-08-26T19:11:42.896Z,99406.81
2022-08-26T19:14:11.791Z,99411.75
2022-08-26T19:16:40.724Z,99417.22
2022-08-26T19:19:07.738Z,99418.56
2022-08-26T19:21:35.692Z,99421.91
2022-08-26T19:24:03.938Z,99422.41
2022-08-26T19:26:31.437Z,99428.25
2022-08-26T19:28:58.464Z,99438.66
2022-08-26T19:31:25.573Z,99427.19
2022-08-26T19:33:52.510Z,99435.22
2022-08-26T19:36:21.167Z,99435.81
2022-08-26T19:38:48.557Z,99428.84
2022-08-26T19:41:17.318Z,99434.41
2022-08-26T19:43:44.295Z,99434.88
2022-08-26T19:46:14.740Z,99443.09
2022-08-26T19:48:41.677Z,99450.31
2022-08-26T19:51:11.521Z,99450.56
2022-08-26T19:53:39.194Z,99453.00
2022-08-26T19:56:08.302Z,99468.16
2022-08-26T19:58:35.147Z,99461.28
2022-08-26T20:01:02.244Z,99458.19
2022-08-26T20:03:29.139Z,99458.06
2022-08-26T20:05:56.200Z,99458.44
2022-08-26T20:08:23.010Z,99455.91
2022-08-26T20:10:50.516Z,99463.72
2022-08-26T20:13:17.373Z,99464.63
2022-08-26T20:15:44.412Z,99464.31
2022-08-26T20:18:11.397Z,99464.53
2022-08-26T20:20:38.345Z,99451.91
2022-08-26T20:23:05.226Z,99456.09
2022-08-26T20:25:32.812Z,99466.59
2022-08-26T20:28:00.201Z,99468.25
2022-08-26T20:30:27.067Z,99455.84
2022-08-26T20:32:55.351Z,99452.84
2022-08-26T20:35:22.286Z,99458.94
2022-08-26T20:37:49.142Z,99460.28
2022-08-26T20:40:17.052Z,99466.19
2022-08-26T20:42:44.007Z,99471.97
2022-08-26T20:45:10.955Z,99460.13
2022-08-26T20:47:37.893Z,99458.47
2022-08-26T20:50:05.121Z,99465.66
2022-08-26T20:52:31.939Z,99464.59
2022-08-26T20:54:59.994Z,99465.78
2022-08-26T20:57:26.836Z,99464.69
2022-08-26T20:59:53.702Z,99459.16
2022-08-26T21:02:20.542Z,99468.97
2022-08-26T21:04:47.492Z,99469.56
2022-08-26T21:07:14.397Z,99474.25
2022-08-26T21:09:41.412Z,99475.59
2022-08-26T21:12:09.165Z,99479.78
2022-08-26T21:14:36.030Z,99482.06
2022-08-26T21:17:03.436Z,99488.19
2022-08-26T21:19:30.394Z,99479.06
2022-08-26T21:21:57.254Z,99493.16
2022-08-26T21:24:24.112Z,99497.59
2022-08-26T21:26:50.921Z,99501.44
2022-08-26T21:29:17.754Z,99500.59
2022-08-26T21:31:46.535Z,99504.78
2022-08-26T21:34:17.738Z,99502.28
2022-08-26T21:36:45.745Z,99517.47
2022-08-26T21:39:12.722Z,99515.69
2022-08-26T21:41:40.345Z,99517.84
2022-08-26T21:44:07.179Z,99511.25
2022-08-26T21:46:34.015Z,99512.31
2022-08-26T21:49:02.283Z,99518.97
2022-08-26T21:51:31.565Z,99506.47
2022-08-26T21:53:59.045Z,99506.94
2022-08-26T21:56:27.380Z,99503.69
2022-08-26T21:58:54.781Z,99509.13
2022-08-26T22:01:23.490Z,99504.41
2022-08-26T22:03:51.110Z,99508.03
2022-08-26T22:06:18.980Z,99505.50
2022-08-26T22:08:45.889Z,99515.75
2022-08-26T22:11:12.745Z,99514.91
2022-08-26T22:13:41.031Z,99513.47
2022-08-26T22:16:07.976Z,99511.81
2022-08-26T22:18:35.549Z,99516.75
2022-08-26T22:21:04.711Z,99516.97
2022-08-26T22:23:31.942Z,99520.59
2022-08-26T22:25:58.860Z,99516.75
2022-08-26T22:28:25.780Z,99516.50
2022-08-26T22:30:52.648Z,99515.38
2022-08-26T22:33:19.703Z,99519.31
2022-08-26T22:35:48.928Z,99516.66
2022-08-26T22:38:16.313Z,99520.50
2022-08-26T22:40:48.647Z,99522.44
2022-08-26T22:43:15.834Z,99515.47
2022-08-26T22:45:43.883Z,99523.75
2022-08-26T22:48:12.133Z,99526.28
2022-08-26T22:50:39.081Z,99520.25
2022-08-26T22:53:06.064Z,99514.13
2022-08-26T22:55:32.920Z,99518.69
2022-08-26T22:57:59.916Z,99518.69
2022-08-26T23:00:31.972Z,99527.00
2022-08-26T23:02:59.832Z,99517.22
2022-08-26T23:05:26.771Z,99512.78
2022-08-26T23:07:53.790Z,99516.56
2022-08-26T23:10:20.729Z,99517.03
2022-08-26T23:12:47.564Z,99515.28
2022-08-26T23:15:14.801Z,99522.72
2022-08-26T23:17:43.203Z,99519.34
2022-08-26T23:20:11.336Z,99515.50
2022-08-26T23:22:38.229Z,99520.19
2022-08-26T23:25:06.803Z,99516.56
2022-08-26T23:27:36.127Z,99522.22
2022-08-26T23:30:04.647Z,99515.84
2022-08-26T23:32:31.458Z,99511.75
2022-08-26T23:34:58.382Z,99514.28
2022-08-26T23:37:27.010Z,99507.88
2022-08-26T23:39:54.821Z,99515.59
2022-08-26T23:42:21.742Z,99514.19
2022-08-26T23:44:48.723Z,99511.75
2022-08-26T23:47:16.654Z,99500.44
2022-08-26T23:49:43.488Z,99502.88
2022-08-26T23:52:10.395Z,99493.63
2022-08-26T23:54:37.845Z,99487.59
2022-08-26T23:57:04.948Z,99495.63
2022-08-26T23:59:32.067Z,99487.31
